createdAt,value
2019-01-25T00:00:36.360Z,24.85
2019-01-25T00:03:10.221Z,25.25
2019-01-25T00:05:36.631Z,22.50
2019-01-25T00:08:05.648Z,24.43
2019-01-25T00:10:34.192Z,22.40
2019-01-25T00:13:02.855Z,24.80
2019-01-25T00:15:31.465Z,24.90
2019-01-25T00:18:00.079Z,23.95
2019-01-25T00:20:28.712Z,23.57
2019-01-25T00:22:57.261Z,24.18
2019-01-25T00:25:25.809Z,25.75
2019-01-25T00:27:54.386Z,24.67
2019-01-25T00:30:22.953Z,18.92
2019-01-25T00:32:51.489Z,24.10
2019-01-25T00:35:20.084Z,24.72
2019-01-25T00:37:48.642Z,23.57
2019-01-25T00:40:19.342Z,21.95
2019-01-25T00:42:47.928Z,23.20
2019-01-25T00:45:16.639Z,23.42
2019-01-25T00:47:46.230Z,25.72
2019-01-25T00:50:19.976Z,23.90
2019-01-25T00:52:49.369Z,23.15
2019-01-25T00:55:18.004Z,25.48
2019-01-25T00:57:46.666Z,23.30
2019-01-25T01:00:18.406Z,23.10
2019-01-25T01:02:46.955Z,23.55
2019-01-25T01:05:16.089Z,22.87
2019-01-25T01:07:45.246Z,24.63
2019-01-25T01:10:14.404Z,23.65
2019-01-25T01:12:43.040Z,25.12
2019-01-25T01:15:13.925Z,25.30
2019-01-25T01:17:42.852Z,26.20
2019-01-25T01:20:14.459Z,26.00
2019-01-25T01:22:43.015Z,25.72
2019-01-25T01:25:12.403Z,25.15
2019-01-25T01:27:40.999Z,25.32
2019-01-25T01:30:13.050Z,23.40
2019-01-25T01:32:41.597Z,25.15
2019-01-25T01:35:10.243Z,25.30
2019-01-25T01:37:38.783Z,24.77
2019-01-25T01:40:13.262Z,24.12
2019-01-25T01:42:42.416Z,25.08
2019-01-25T01:45:11.224Z,23.98
2019-01-25T01:47:39.692Z,24.20
2019-01-25T01:50:11.807Z,23.30
2019-01-25T01:52:40.351Z,26.00
2019-01-25T01:55:08.976Z,26.02
2019-01-25T01:57:37.566Z,25.77
2019-01-25T02:00:09.307Z,25.57
2019-01-25T02:02:37.861Z,25.17
2019-01-25T02:05:08.577Z,24.98
2019-01-25T02:07:37.182Z,23.02
2019-01-25T02:10:11.933Z,23.22
2019-01-25T02:12:40.514Z,23.55
2019-01-25T02:15:11.901Z,24.72
2019-01-25T02:17:40.449Z,23.85
2019-01-25T02:20:12.229Z,26.02
2019-01-25T02:22:40.783Z,25.00
2019-01-25T02:25:09.396Z,27.13
2019-01-25T02:27:38.009Z,25.12
2019-01-25T02:30:12.744Z,24.25
2019-01-25T02:32:41.288Z,24.77
2019-01-25T02:35:10.259Z,24.47
2019-01-25T02:37:38.818Z,24.23
2019-01-25T02:40:10.906Z,25.82
2019-01-25T02:42:39.514Z,24.77
2019-01-25T02:45:10.780Z,25.55
2019-01-25T02:47:39.394Z,25.92
2019-01-25T02:50:13.493Z,24.72
2019-01-25T02:52:42.168Z,23.40
2019-01-25T02:55:11.835Z,25.08
2019-01-25T02:57:40.419Z,23.18
2019-01-25T03:00:14.851Z,24.02
2019-01-25T03:02:43.462Z,24.82
2019-01-25T03:05:12.381Z,24.52
2019-01-25T03:07:40.928Z,23.47
2019-01-25T03:10:12.875Z,26.75
2019-01-25T03:12:41.548Z,27.27
2019-01-25T03:15:16.114Z,24.75
2019-01-25T03:17:48.201Z,24.67
2019-01-25T03:20:17.385Z,24.10
2019-01-25T03:22:45.935Z,24.40
2019-01-25T03:25:19.723Z,25.10
2019-01-25T03:27:48.359Z,23.27
2019-01-25T03:30:20.218Z,23.70
2019-01-25T03:32:48.833Z,24.10
2019-01-25T03:35:19.193Z,26.87
2019-01-25T03:37:47.865Z,25.12
2019-01-25T03:40:21.452Z,24.25
2019-01-25T03:42:50.050Z,22.00
2019-01-25T03:45:19.042Z,24.05
2019-01-25T03:47:47.794Z,22.50
2019-01-25T03:50:22.285Z,24.40
2019-01-25T03:52:51.802Z,23.35
2019-01-25T03:55:20.534Z,21.77
2019-01-25T03:57:49.146Z,24.07
2019-01-25T04:00:20.045Z,25.08
2019-01-25T04:02:48.694Z,24.70
2019-01-25T04:05:17.975Z,24.57
2019-01-25T04:07:46.973Z,22.48
2019-01-25T04:10:20.245Z,23.12
2019-01-25T04:12:48.857Z,24.47
2019-01-25T04:15:20.044Z,22.95
2019-01-25T04:17:48.647Z,22.52
2019-01-25T04:20:19.220Z,25.02
2019-01-25T04:22:48.000Z,22.55
2019-01-25T04:25:18.952Z,22.00
2019-01-25T04:27:47.616Z,24.52
2019-01-25T04:30:21.722Z,21.15
2019-01-25T04:32:50.390Z,21.82
2019-01-25T04:35:19.011Z,22.02
2019-01-25T04:37:47.622Z,22.22
2019-01-25T04:40:17.829Z,21.48
2019-01-25T04:42:46.432Z,21.02
2019-01-25T04:45:17.396Z,20.20
2019-01-25T04:47:46.246Z,23.60
2019-01-25T04:50:17.234Z,23.02
2019-01-25T04:52:45.775Z,21.40
2019-01-25T04:55:20.013Z,21.02
2019-01-25T04:57:49.099Z,21.27
2019-01-25T05:00:19.985Z,22.50
2019-01-25T05:03:01.824Z,21.23
2019-01-25T05:05:30.436Z,22.70
2019-01-25T05:08:09.847Z,23.70
2019-01-25T05:10:38.553Z,21.55
2019-01-25T05:13:07.169Z,22.32
2019-01-25T05:15:35.726Z,21.93
2019-01-25T05:18:04.647Z,24.75
2019-01-25T05:20:33.186Z,26.75
2019-01-25T05:23:03.399Z,22.65
2019-01-25T05:25:31.951Z,24.43
2019-01-25T05:28:09.826Z,24.05
2019-01-25T05:30:38.568Z,25.27
2019-01-25T05:33:07.129Z,22.58
2019-01-25T05:35:37.058Z,23.85
2019-01-25T05:38:05.667Z,22.73
2019-01-25T05:40:34.229Z,21.45
2019-01-25T05:43:02.897Z,22.90
2019-01-25T05:45:31.516Z,23.00
2019-01-25T05:48:00.075Z,21.77
2019-01-25T05:50:31.586Z,19.87
2019-01-25T05:53:00.145Z,22.40
2019-01-25T05:55:29.322Z,21.73
2019-01-25T05:58:02.569Z,21.70
2019-01-25T06:00:32.756Z,21.77
2019-01-25T06:03:06.511Z,19.82
2019-01-25T06:05:35.152Z,23.25
2019-01-25T06:08:13.414Z,21.87
2019-01-25T06:10:42.003Z,24.30
2019-01-25T06:13:10.562Z,23.22
2019-01-25T06:15:39.110Z,21.93
2019-01-25T06:18:07.772Z,24.02
2019-01-25T06:20:36.314Z,23.30
2019-01-25T06:23:04.860Z,24.00
2019-01-25T06:25:33.438Z,22.15
2019-01-25T06:28:04.690Z,24.25
2019-01-25T06:30:33.242Z,24.00
2019-01-25T06:33:01.848Z,21.95
2019-01-25T06:35:30.389Z,21.10
2019-01-25T06:37:58.936Z,22.37
2019-01-25T06:40:27.508Z,24.25
2019-01-25T06:42:56.053Z,23.50
2019-01-25T06:45:24.598Z,23.18
2019-01-25T06:47:53.172Z,23.40
2019-01-25T06:50:21.735Z,23.52
2019-01-25T06:52:50.287Z,23.67
2019-01-25T06:55:18.877Z,21.82
2019-01-25T06:57:49.323Z,23.32
2019-01-25T07:00:25.905Z,21.97
2019-01-25T07:02:54.448Z,22.50
2019-01-25T07:05:22.995Z,21.62
2019-01-25T07:07:51.676Z,23.60
2019-01-25T07:10:20.895Z,23.18
2019-01-25T07:12:49.458Z,25.00
2019-01-25T07:15:19.687Z,24.72
2019-01-25T07:17:48.383Z,24.20
2019-01-25T07:20:17.798Z,22.95
2019-01-25T07:22:46.314Z,24.33
2019-01-25T07:25:15.945Z,24.07
2019-01-25T07:27:44.497Z,24.23
2019-01-25T07:30:16.969Z,24.02
2019-01-25T07:32:45.718Z,24.23
2019-01-25T07:35:14.571Z,23.22
2019-01-25T07:37:43.200Z,23.52
2019-01-25T07:40:12.227Z,24.07
2019-01-25T07:42:41.008Z,24.20
2019-01-25T07:45:13.504Z,24.77
2019-01-25T07:47:42.045Z,26.60
2019-01-25T07:50:13.696Z,25.30
2019-01-25T07:52:42.313Z,24.80
2019-01-25T07:55:12.568Z,25.75
2019-01-25T07:57:41.273Z,26.05
2019-01-25T08:00:13.048Z,26.33
2019-01-25T08:02:41.587Z,23.70
2019-01-25T08:05:10.700Z,24.67
2019-01-25T08:07:39.780Z,24.18
2019-01-25T08:10:22.397Z,27.02
2019-01-25T08:12:50.973Z,26.27
2019-01-25T08:15:25.538Z,27.00
2019-01-25T08:17:54.338Z,23.98
2019-01-25T08:20:22.957Z,25.08
2019-01-25T08:22:51.545Z,25.45
2019-01-25T08:25:20.196Z,24.18
2019-01-25T08:27:49.015Z,24.90
2019-01-25T08:30:22.891Z,25.72
2019-01-25T08:32:51.929Z,26.12
2019-01-25T08:35:21.403Z,26.90
2019-01-25T08:37:50.061Z,24.85
2019-01-25T08:40:18.929Z,25.57
2019-01-25T08:42:47.644Z,28.05
2019-01-25T08:45:18.304Z,25.27
2019-01-25T08:47:47.018Z,25.37
2019-01-25T08:50:21.173Z,26.42
2019-01-25T08:52:49.832Z,26.02
2019-01-25T08:55:18.537Z,28.30
2019-01-25T08:57:47.083Z,32.08
2019-01-25T09:00:21.226Z,32.23
2019-01-25T09:02:50.021Z,31.45
2019-01-25T09:05:18.840Z,24.65
2019-01-25T09:07:47.468Z,27.93
2019-01-25T09:10:20.789Z,26.15
2019-01-25T09:12:49.366Z,27.93
2019-01-25T09:15:23.763Z,28.10
2019-01-25T09:17:52.306Z,28.73
2019-01-25T09:20:22.156Z,26.45
2019-01-25T09:22:50.703Z,27.48
2019-01-25T09:25:19.460Z,27.48
2019-01-25T09:27:48.601Z,26.42
2019-01-25T09:30:19.843Z,28.30
2019-01-25T09:32:48.450Z,27.98
2019-01-25T09:35:17.792Z,30.17
2019-01-25T09:37:48.527Z,28.12
2019-01-25T09:40:21.381Z,27.10
2019-01-25T09:42:50.178Z,26.85
2019-01-25T09:45:18.789Z,25.37
2019-01-25T09:47:47.384Z,25.77
2019-01-25T09:50:23.425Z,26.75
2019-01-25T09:52:52.967Z,27.80
2019-01-25T09:55:25.893Z,26.65
2019-01-25T09:58:00.601Z,27.25
2019-01-25T10:00:35.097Z,26.97
2019-01-25T10:03:03.654Z,25.45
2019-01-25T10:05:32.487Z,26.45
2019-01-25T10:08:01.045Z,28.40
2019-01-25T10:10:29.679Z,26.65
2019-01-25T10:12:58.266Z,28.60
2019-01-25T10:15:29.021Z,22.02
2019-01-25T10:17:57.748Z,26.60
2019-01-25T10:20:26.782Z,27.00
2019-01-25T10:22:55.351Z,25.32
2019-01-25T10:25:23.985Z,25.48
2019-01-25T10:27:52.573Z,26.07
2019-01-25T10:30:24.282Z,24.32
2019-01-25T10:32:52.841Z,21.40
2019-01-25T10:35:22.565Z,20.17
2019-01-25T10:37:52.455Z,19.45
2019-01-25T10:40:22.536Z,19.65
2019-01-25T10:42:53.238Z,21.42
2019-01-25T10:45:27.575Z,20.85
2019-01-25T10:47:56.176Z,20.48
2019-01-25T10:50:24.723Z,20.62
2019-01-25T10:52:53.267Z,20.95
2019-01-25T10:55:21.908Z,22.00
2019-01-25T10:57:50.459Z,21.40
2019-01-25T11:00:21.491Z,23.20
2019-01-25T11:02:57.652Z,20.95
2019-01-25T11:05:28.785Z,21.12
2019-01-25T11:07:57.685Z,20.90
2019-01-25T11:10:26.289Z,22.93
2019-01-25T11:13:00.778Z,22.67
2019-01-25T11:15:25.676Z,20.60
2019-01-25T11:17:54.223Z,23.42
2019-01-25T11:20:24.707Z,20.55
2019-01-25T11:22:53.628Z,20.82
2019-01-25T11:25:28.148Z,21.02
2019-01-25T11:27:56.768Z,21.25
2019-01-25T11:30:25.425Z,20.20
2019-01-25T11:32:53.976Z,21.40
2019-01-25T11:35:22.591Z,21.57
2019-01-25T11:37:51.194Z,20.23
2019-01-25T11:40:22.764Z,20.15
2019-01-25T11:42:51.312Z,20.52
2019-01-25T11:45:19.913Z,20.50
2019-01-25T11:47:48.436Z,19.57
2019-01-25T11:50:21.077Z,20.55
2019-01-25T11:52:49.660Z,21.23
2019-01-25T11:55:19.150Z,20.08
2019-01-25T11:57:47.935Z,20.12
2019-01-25T12:00:28.145Z,22.10
2019-01-25T12:02:56.695Z,20.77
2019-01-25T12:05:25.986Z,19.50
2019-01-25T12:07:55.310Z,21.30
2019-01-25T12:10:29.446Z,22.22
2019-01-25T12:12:58.006Z,20.88
2019-01-25T12:15:26.607Z,21.27
2019-01-25T12:17:55.241Z,22.25
2019-01-25T12:20:31.662Z,21.27
2019-01-25T12:23:00.494Z,20.27
2019-01-25T12:25:29.114Z,19.60
2019-01-25T12:27:57.847Z,20.97
2019-01-25T12:30:37.847Z,21.05
2019-01-25T12:33:06.291Z,17.70
2019-01-25T12:35:37.176Z,20.43
2019-01-25T12:38:05.935Z,20.72
2019-01-25T12:40:34.849Z,18.32
2019-01-25T12:43:03.390Z,20.10
2019-01-25T12:45:32.464Z,21.80
2019-01-25T12:48:01.042Z,19.82
2019-01-25T12:50:35.233Z,17.17
2019-01-25T12:53:06.256Z,23.27
2019-01-25T12:55:34.823Z,19.27
2019-01-25T12:58:03.353Z,20.40
2019-01-25T13:00:31.988Z,23.52
2019-01-25T13:03:00.544Z,22.93
2019-01-25T13:05:29.168Z,21.48
2019-01-25T13:07:57.764Z,20.02
2019-01-25T13:10:27.555Z,18.10
2019-01-25T13:12:56.533Z,19.27
2019-01-25T13:15:25.117Z,21.10
2019-01-25T13:17:53.684Z,18.73
2019-01-25T13:20:24.575Z,19.10
2019-01-25T13:22:53.226Z,20.92
2019-01-25T13:25:22.014Z,18.80
2019-01-25T13:27:50.629Z,20.20
2019-01-25T13:30:21.879Z,20.90
2019-01-25T13:32:50.499Z,20.45
2019-01-25T13:35:19.204Z,22.67
2019-01-25T13:37:47.798Z,19.85
2019-01-25T13:40:19.049Z,20.77
2019-01-25T13:42:47.599Z,23.38
2019-01-25T13:45:18.025Z,23.90
2019-01-25T13:47:46.728Z,22.27
2019-01-25T13:50:20.909Z,21.12
2019-01-25T13:52:49.507Z,21.30
2019-01-25T13:55:18.249Z,21.73
2019-01-25T13:57:46.860Z,22.42
2019-01-25T14:00:26.776Z,22.32
2019-01-25T14:02:55.327Z,24.43
2019-01-25T14:05:24.146Z,26.17
2019-01-25T14:07:52.811Z,28.12
2019-01-25T14:10:29.360Z,24.05
2019-01-25T14:12:57.930Z,19.60
2019-01-25T14:15:26.608Z,24.95
2019-01-25T14:17:55.144Z,23.20
2019-01-25T14:20:25.955Z,25.40
2019-01-25T14:22:54.518Z,28.05
2019-01-25T14:25:23.201Z,22.90
2019-01-25T14:27:52.156Z,21.48
2019-01-25T14:30:29.624Z,22.32
2019-01-25T14:32:58.225Z,24.98
2019-01-25T14:35:26.767Z,23.07
2019-01-25T14:37:55.403Z,23.57
2019-01-25T14:40:23.984Z,24.75
2019-01-25T14:42:52.526Z,22.85
2019-01-25T14:45:21.146Z,20.75
2019-01-25T14:47:49.783Z,23.05
2019-01-25T14:50:24.225Z,21.87
2019-01-25T14:52:52.851Z,23.35
2019-01-25T14:55:23.067Z,23.95
2019-01-25T14:57:51.689Z,22.37
2019-01-25T15:00:20.241Z,20.77
2019-01-25T15:02:48.816Z,23.60
2019-01-25T15:05:18.722Z,23.22
2019-01-25T15:07:47.338Z,24.00
2019-01-25T15:10:21.303Z,20.62
2019-01-25T15:12:50.225Z,22.77
2019-01-25T15:15:18.763Z,23.18
2019-01-25T15:17:47.610Z,22.17
2019-01-25T15:20:21.855Z,22.15
2019-01-25T15:22:50.466Z,22.45
2019-01-25T15:25:19.182Z,17.65
2019-01-25T15:27:47.726Z,17.42
2019-01-25T15:30:19.063Z,21.15
2019-01-25T15:32:47.665Z,22.90
2019-01-25T15:35:17.859Z,20.77
2019-01-25T15:37:46.402Z,18.57
2019-01-25T15:40:17.304Z,19.42
2019-01-25T15:42:45.867Z,19.45
2019-01-25T15:45:16.666Z,20.25
2019-01-25T15:47:45.614Z,19.52
2019-01-25T15:50:19.342Z,19.05
2019-01-25T15:52:47.966Z,17.75
2019-01-25T15:55:17.013Z,19.35
2019-01-25T15:57:45.568Z,18.40
2019-01-25T16:00:16.729Z,18.10
2019-01-25T16:02:45.381Z,20.60
2019-01-25T16:05:16.360Z,15.13
2019-01-25T16:07:44.922Z,16.07
2019-01-25T16:10:16.317Z,16.87
2019-01-25T16:12:44.864Z,15.83
2019-01-25T16:15:15.851Z,15.98
2019-01-25T16:17:44.517Z,16.82
2019-01-25T16:20:16.616Z,18.92
2019-01-25T16:22:45.445Z,16.10
2019-01-25T16:25:16.666Z,16.48
2019-01-25T16:27:45.222Z,16.10
2019-01-25T16:30:17.080Z,17.20
2019-01-25T16:32:45.681Z,16.02
2019-01-25T16:35:14.594Z,17.50
2019-01-25T16:37:43.140Z,14.28
2019-01-25T16:40:20.363Z,16.10
2019-01-25T16:42:48.934Z,14.28
2019-01-25T16:45:20.266Z,16.55
2019-01-25T16:47:48.849Z,14.95
2019-01-25T16:50:23.612Z,15.35
2019-01-25T16:52:47.907Z,16.23
2019-01-25T16:55:16.763Z,17.27
2019-01-25T16:57:46.058Z,15.43
2019-01-25T17:00:31.775Z,17.75
2019-01-25T17:03:00.474Z,17.57
2019-01-25T17:05:29.162Z,18.60
2019-01-25T17:07:57.733Z,16.60
2019-01-25T17:10:26.343Z,18.70
2019-01-25T17:12:54.908Z,19.40
2019-01-25T17:15:23.556Z,17.70
2019-01-25T17:17:52.101Z,16.57
2019-01-25T17:20:26.018Z,17.87
2019-01-25T17:22:54.923Z,16.70
2019-01-25T17:25:23.477Z,18.40
2019-01-25T17:27:52.168Z,15.60
2019-01-25T17:30:28.686Z,17.57
2019-01-25T17:32:58.874Z,16.95
2019-01-25T17:35:27.789Z,17.37
2019-01-25T17:37:56.620Z,18.40
2019-01-25T17:40:27.920Z,19.00
2019-01-25T17:42:57.678Z,18.15
2019-01-25T17:45:26.343Z,18.10
2019-01-25T17:47:54.982Z,15.30
2019-01-25T17:50:23.829Z,17.23
2019-01-25T17:52:52.467Z,16.67
2019-01-25T17:55:21.018Z,18.45
2019-01-25T17:57:49.563Z,17.70
2019-01-25T18:00:31.128Z,17.75
2019-01-25T18:02:59.727Z,19.90
2019-01-25T18:05:28.274Z,19.17
2019-01-25T18:07:56.956Z,19.57
2019-01-25T18:10:26.040Z,15.40
2019-01-25T18:12:54.594Z,19.17
2019-01-25T18:15:23.237Z,23.12
2019-01-25T18:17:51.785Z,20.95
2019-01-25T18:20:22.846Z,20.70
2019-01-25T18:22:51.497Z,21.25
2019-01-25T18:25:26.351Z,18.62
2019-01-25T18:28:00.436Z,19.65
2019-01-25T18:30:44.240Z,17.75
2019-01-25T18:33:12.821Z,18.10
2019-01-25T18:35:41.374Z,19.60
2019-01-25T18:38:09.927Z,18.87
2019-01-25T18:40:38.519Z,20.45
2019-01-25T18:43:07.412Z,24.92
2019-01-25T18:45:35.954Z,20.57
2019-01-25T18:48:04.705Z,21.37
2019-01-25T18:50:33.256Z,19.30
2019-01-25T18:53:01.793Z,20.00
2019-01-25T18:55:30.369Z,22.05
2019-01-25T18:57:58.931Z,20.30
2019-01-25T19:00:27.475Z,21.00
2019-01-25T19:02:56.063Z,19.87
2019-01-25T19:05:24.622Z,20.30
2019-01-25T19:07:53.190Z,20.12
2019-01-25T19:10:24.599Z,20.12
2019-01-25T19:12:53.150Z,21.55
2019-01-25T19:15:27.385Z,22.75
2019-01-25T19:17:56.035Z,21.70
2019-01-25T19:20:24.655Z,22.52
2019-01-25T19:22:53.274Z,22.00
2019-01-25T19:25:21.911Z,23.70
2019-01-25T19:27:50.913Z,22.85
2019-01-25T19:30:25.655Z,22.55
2019-01-25T19:32:54.241Z,27.13
2019-01-25T19:35:22.845Z,23.75
2019-01-25T19:37:51.460Z,23.85
2019-01-25T19:40:23.046Z,22.22
2019-01-25T19:42:51.664Z,23.62
2019-01-25T19:45:20.296Z,24.47
2019-01-25T19:47:48.920Z,23.62
2019-01-25T19:50:20.251Z,24.80
2019-01-25T19:52:49.034Z,23.20
2019-01-25T19:55:28.996Z,23.90
2019-01-25T19:57:58.985Z,22.17
2019-01-25T20:00:30.175Z,21.60
2019-01-25T20:02:58.773Z,23.62
2019-01-25T20:05:29.730Z,25.10
2019-01-25T20:07:58.355Z,22.58
2019-01-25T20:10:27.024Z,22.95
2019-01-25T20:12:55.655Z,23.18
2019-01-25T20:15:26.044Z,23.80
2019-01-25T20:17:54.687Z,23.00
2019-01-25T20:20:28.941Z,26.40
2019-01-25T20:22:57.587Z,24.25
2019-01-25T20:25:26.175Z,23.75
2019-01-25T20:27:54.797Z,23.38
2019-01-25T20:30:25.923Z,25.85
2019-01-25T20:32:54.529Z,23.80
2019-01-25T20:35:25.822Z,25.60
2019-01-25T20:37:54.518Z,25.00
2019-01-25T20:40:23.120Z,27.40
2019-01-25T20:42:51.733Z,27.17
2019-01-25T20:45:27.281Z,24.07
2019-01-25T20:47:56.074Z,27.20
2019-01-25T20:50:26.853Z,26.75
2019-01-25T20:52:55.425Z,25.72
2019-01-25T20:55:24.327Z,30.62
2019-01-25T20:57:53.023Z,31.52
2019-01-25T21:00:26.995Z,26.68
2019-01-25T21:02:55.726Z,26.05
2019-01-25T21:05:24.861Z,24.37
2019-01-25T21:07:53.407Z,28.75
2019-01-25T21:10:24.139Z,28.05
2019-01-25T21:12:52.746Z,28.60
2019-01-25T21:15:26.305Z,28.30
2019-01-25T21:17:55.234Z,27.15
2019-01-25T21:20:26.495Z,27.67
2019-01-25T21:22:55.116Z,28.67
2019-01-25T21:25:23.756Z,29.00
2019-01-25T21:27:52.299Z,28.05
2019-01-25T21:30:23.803Z,28.17
2019-01-25T21:32:52.729Z,28.87
2019-01-25T21:35:21.350Z,31.57
2019-01-25T21:37:50.003Z,29.15
2019-01-25T21:40:23.875Z,27.65
2019-01-25T21:42:52.427Z,28.40
2019-01-25T21:45:23.025Z,27.80
2019-01-25T21:47:51.736Z,30.55
2019-01-25T21:50:26.043Z,31.25
2019-01-25T21:52:54.749Z,29.98
2019-01-25T21:55:23.399Z,30.97
2019-01-25T21:57:52.016Z,30.10
2019-01-25T22:00:28.872Z,33.02
2019-01-25T22:02:57.431Z,30.10
2019-01-25T22:05:26.043Z,38.33
2019-01-25T22:07:54.633Z,37.70
2019-01-25T22:10:28.572Z,34.90
2019-01-25T22:12:57.199Z,34.40
2019-01-25T22:15:25.783Z,33.65
2019-01-25T22:17:54.399Z,28.23
2019-01-25T22:20:25.278Z,33.38
2019-01-25T22:22:53.869Z,30.17
2019-01-25T22:25:22.589Z,32.60
2019-01-25T22:27:52.484Z,33.28
2019-01-25T22:30:23.103Z,32.17
2019-01-25T22:32:51.717Z,33.02
2019-01-25T22:35:20.423Z,30.27
2019-01-25T22:37:49.027Z,32.35
2019-01-25T22:40:19.726Z,32.00
2019-01-25T22:42:48.265Z,31.30
2019-01-25T22:45:22.293Z,34.75
2019-01-25T22:47:50.825Z,34.85
2019-01-25T22:50:27.705Z,31.77
2019-01-25T22:52:56.272Z,31.87
2019-01-25T22:55:25.600Z,28.67
2019-01-25T22:57:54.179Z,35.73
2019-01-25T23:00:51.258Z,33.67
2019-01-25T23:03:28.765Z,31.13
2019-01-25T23:06:29.377Z,28.12
2019-01-25T23:09:01.269Z,31.75
2019-01-25T23:11:29.814Z,28.67
2019-01-25T23:13:58.363Z,30.68
2019-01-25T23:16:26.959Z,32.30
2019-01-25T23:18:55.835Z,29.72
2019-01-25T23:21:24.398Z,30.55
2019-01-25T23:23:52.998Z,29.27
2019-01-25T23:26:21.565Z,30.65
2019-01-25T23:28:50.106Z,31.82
2019-01-25T23:31:18.678Z,28.95
2019-01-25T23:33:47.300Z,33.67
2019-01-25T23:36:16.425Z,31.10
2019-01-25T23:38:45.022Z,33.95
2019-01-25T23:41:13.577Z,30.68
2019-01-25T23:43:42.124Z,28.32
2019-01-25T23:46:13.870Z,34.35
2019-01-25T23:48:41.184Z,32.35
2019-01-25T23:51:09.810Z,29.10
2019-01-25T23:53:38.417Z,31.40
2019-01-25T23:56:06.965Z,28.67
2019-01-25T23:58:35.517Z,27.07
